Time;durP1;ratioP1;P1;durP2;ratioP2;P2;SDS_P1;SDS_P2;PMS_P1;PMS_P2;Temp;Humidity;BMP_temperature;BMP_pressure;BME280_temperature;BME280_humidity;BME280_pressure;Samples;Min_cycle;Max_cycle;Signal;HPM_P1;HPM_P2
2023/05/15 00:01:43;;;;;;;38.92;18.42;;;11.90;99.90;;;;;;5115641;28;20035;-72
2023/05/15 00:04:08;;;;;;;31.55;17.42;;;11.90;99.90;;;;;;5115451;28;20367;-72
2023/05/15 00:06:34;;;;;;;31.30;16.85;;;11.90;99.90;;;;;;5115526;28;20083;-71
2023/05/15 00:09:00;;;;;;;34.53;18.47;;;11.80;99.90;;;;;;5115495;28;20124;-72
2023/05/15 00:11:26;;;;;;;34.25;17.63;;;;;;;;;;5115460;28;20055;-72
2023/05/15 00:13:53;;;;;;;30.30;18.10;;;11.80;99.90;;;;;;5115145;28;20471;-72
2023/05/15 00:16:18;;;;;;;25.83;15.52;;;11.80;99.90;;;;;;5115330;28;20049;-72
2023/05/15 00:18:44;;;;;;;26.02;15.27;;;11.90;99.90;;;;;;5115091;28;20040;-73
2023/05/15 00:21:10;;;;;;;32.10;19.13;;;11.80;99.90;;;;;;5115154;28;20075;-71
2023/05/15 00:23:36;;;;;;;33.35;17.65;;;11.80;99.90;;;;;;5115244;28;20083;-72
2023/05/15 00:26:01;;;;;;;29.42;17.25;;;11.80;99.90;;;;;;5113723;28;20035;-72
2023/05/15 00:28:27;;;;;;;30.80;17.35;;;11.80;99.90;;;;;;5115144;28;20041;-71
2023/05/15 00:30:52;;;;;;;36.70;17.98;;;11.80;99.90;;;;;;5115048;28;20422;-71
2023/05/15 00:33:18;;;;;;;29.85;16.30;;;11.80;99.90;;;;;;5114995;28;20035;-72
2023/05/15 00:35:44;;;;;;;32.47;17.57;;;11.70;99.90;;;;;;5114882;28;20079;-71
2023/05/15 00:38:10;;;;;;;28.88;16.05;;;12.20;99.90;;;;;;5113965;28;20040;-71
2023/05/15 00:40:37;;;;;;;28.77;16.00;;;11.70;99.90;;;;;;5114841;28;20352;-72
2023/05/15 00:43:03;;;;;;;33.08;18.70;;;11.80;99.90;;;;;;5114026;28;20050;-71
2023/05/15 00:45:29;;;;;;;39.20;20.42;;;11.70;99.90;;;;;;5114712;28;20085;-72
2023/05/15 00:47:57;;;;;;;31.40;17.83;;;11.70;99.90;;;;;;5114558;28;20039;-73
2023/05/15 00:50:23;;;;;;;37.80;19.90;;;11.70;99.90;;;;;;5114597;28;20467;-72
2023/05/15 00:52:49;;;;;;;41.43;18.77;;;11.70;99.90;;;;;;5113944;28;20050;-71
2023/05/15 00:55:15;;;;;;;35.10;20.00;;;11.70;99.90;;;;;;5114637;28;20416;-72
2023/05/15 00:57:44;;;;;;;38.70;19.75;;;11.70;99.90;;;;;;5114754;28;20118;-72
2023/05/15 01:00:11;;;;;;;42.72;21.25;;;11.70;99.90;;;;;;5113360;28;20047;-71
2023/05/15 01:02:37;;;;;;;43.58;18.95;;;11.80;99.90;;;;;;5114539;28;20044;-71
2023/05/15 01:05:04;;;;;;;35.63;18.33;;;11.70;99.90;;;;;;5114280;28;20519;-71
2023/05/15 01:07:39;;;;;;;38.08;17.55;;;11.70;99.90;;;;;;5114934;28;20321;-71
2023/05/15 01:10:07;;;;;;;34.08;19.10;;;12.10;99.90;;;;;;5114781;28;20050;-71
2023/05/15 01:12:34;;;;;;;41.25;20.23;;;11.80;99.90;;;;;;5114685;28;20160;-72
2023/05/15 01:15:00;;;;;;;33.75;18.83;;;12.50;99.90;;;;;;5114260;28;20075;-72
2023/05/15 01:17:26;;;;;;;35.77;18.63;;;11.90;99.90;;;;;;5114273;28;20090;-72
2023/05/15 01:19:51;;;;;;;33.05;18.10;;;11.80;99.90;;;;;;5114413;28;20032;-73
2023/05/15 01:22:32;;;;;;;37.50;19.45;;;11.80;99.90;;;;;;5114244;28;20039;-72
2023/05/15 01:25:23;;;;;;;36.92;19.20;;;11.80;99.90;;;;;;5114533;28;20039;-72
2023/05/15 01:27:55;;;;;;;34.85;19.83;;;12.70;99.90;;;;;;5114035;28;20047;-71
2023/05/15 01:30:29;;;;;;;37.92;20.02;;;11.80;99.90;;;;;;5114292;28;20071;-71
2023/05/15 01:33:15;;;;;;;33.85;18.58;;;11.70;99.90;;;;;;5114002;28;20039;-72
2023/05/15 01:35:58;;;;;;;39.50;20.30;;;11.70;99.90;;;;;;5113487;28;20388;-72
2023/05/15 01:38:43;;;;;;;37.40;20.33;;;11.90;99.90;;;;;;5114114;28;20043;-72
2023/05/15 01:41:25;;;;;;;34.95;20.25;;;11.60;99.90;;;;;;5113072;28;20494;-71
2023/05/15 01:43:55;;;;;;;36.13;20.02;;;11.60;99.90;;;;;;5114429;28;20070;-72
2023/05/15 01:46:26;;;;;;;46.72;22.10;;;11.60;99.90;;;;;;5114197;28;20119;-71
2023/05/15 01:48:53;;;;;;;41.03;19.75;;;11.60;99.90;;;;;;5113981;28;20040;-72
2023/05/15 01:51:21;;;;;;;36.38;20.38;;;11.60;99.90;;;;;;5114410;28;20383;-71
2023/05/15 01:53:48;;;;;;;37.13;20.25;;;11.60;99.90;;;;;;5113900;28;20035;-72
2023/05/15 01:56:16;;;;;;;40.25;20.67;;;11.60;99.90;;;;;;5117775;28;20036;-71
2023/05/15 01:58:43;;;;;;;32.58;18.40;;;11.60;99.90;;;;;;5118200;28;20084;-72
2023/05/15 02:01:09;;;;;;;37.08;19.60;;;11.60;99.90;;;;;;5118005;28;20406;-71
2023/05/15 02:03:36;;;;;;;38.17;19.23;;;11.60;99.90;;;;;;5117995;28;20080;-71
2023/05/15 02:06:04;;;;;;;31.85;18.40;;;11.60;99.90;;;;;;5118316;28;20050;-71
2023/05/15 02:08:31;;;;;;;34.00;19.33;;;11.60;99.90;;;;;;5117830;28;20093;-72
2023/05/15 02:11:01;;;;;;;38.03;19.92;;;11.60;99.90;;;;;;5117763;28;20041;-72
2023/05/15 02:13:29;;;;;;;34.30;19.10;;;11.50;99.90;;;;;;5116486;28;20082;-70
2023/05/15 02:15:55;;;;;;;45.40;21.92;;;11.90;99.90;;;;;;5116614;28;20043;-71
2023/05/15 02:18:21;;;;;;;38.20;18.27;;;11.60;99.90;;;;;;5117551;28;20047;-71
2023/05/15 02:20:46;;;;;;;32.53;17.48;;;11.60;99.90;;;;;;5117659;27;20036;-72
2023/05/15 02:23:12;;;;;;;40.47;18.27;;;11.40;99.90;;;;;;5117562;28;20379;-71
2023/05/15 02:25:48;;;;;;;28.58;16.63;;;11.40;99.90;;;;;;5117503;28;20086;-71
2023/05/15 02:28:27;;;;;;;32.03;18.03;;;11.30;99.90;;;;;;5117505;28;20378;-71
2023/05/15 02:31:06;;;;;;;34.67;17.35;;;11.70;99.90;;;;;;5117955;28;20074;-72
2023/05/15 02:33:44;;;;;;;30.08;18.05;;;11.20;99.90;;;;;;5117713;28;20098;-71
2023/05/15 02:36:18;;;;;;;32.88;18.77;;;11.30;99.90;;;;;;5117492;28;20040;-71
2023/05/15 02:38:49;;;;;;;29.60;17.45;;;11.20;99.90;;;;;;5117236;28;20047;-72
2023/05/15 02:41:16;;;;;;;32.97;15.85;;;11.30;99.90;;;;;;5117231;27;20467;-71
2023/05/15 02:43:43;;;;;;;36.85;18.48;;;11.30;99.90;;;;;;5117174;27;20035;-71
2023/05/15 02:46:10;;;;;;;30.73;17.52;;;11.30;99.90;;;;;;5117097;27;20109;-72
2023/05/15 02:48:39;;;;;;;31.85;17.35;;;11.30;99.90;;;;;;5117382;28;20036;-70
2023/05/15 02:51:05;;;;;;;36.97;16.50;;;11.40;99.90;;;;;;5117004;28;20035;-71
2023/05/15 02:53:32;;;;;;;34.30;17.43;;;11.20;99.90;;;;;;5117048;27;20036;-71
2023/05/15 02:55:58;;;;;;;;;;;11.20;99.90;;;;;;5116156;28;20530;-72
2023/05/15 02:58:24;;;;;;;30.52;16.88;;;11.20;99.90;;;;;;5116845;28;19969;-71
2023/05/15 03:00:49;;;;;;;33.75;16.77;;;11.20;99.90;;;;;;5116650;28;20036;-72
2023/05/15 03:03:15;;;;;;;40.40;17.63;;;11.20;99.90;;;;;;5116624;28;20036;-71
2023/05/15 03:05:40;;;;;;;38.60;17.73;;;11.20;99.90;;;;;;5116599;28;20043;-71
2023/05/15 03:08:06;;;;;;;31.80;16.48;;;11.10;99.90;;;;;;5116179;28;20047;-72
2023/05/15 03:10:32;;;;;;;32.70;17.83;;;11.10;99.90;;;;;;5116536;28;20044;-72
2023/05/15 03:12:58;;;;;;;37.10;19.10;;;11.10;99.90;;;;;;5116663;28;20459;-72
2023/05/15 03:15:23;;;;;;;31.95;17.35;;;11.70;99.90;;;;;;5116540;28;20044;-71
2023/05/15 03:17:49;;;;;;;37.78;17.40;;;11.60;99.90;;;;;;5116875;27;20039;-72
2023/05/15 03:20:15;;;;;;;29.20;16.67;;;11.10;99.90;;;;;;5116461;28;20040;-71
2023/05/15 03:22:41;;;;;;;35.55;17.45;;;11.10;99.90;;;;;;5116364;28;20032;-71
2023/05/15 03:25:09;;;;;;;32.33;15.48;;;11.10;99.90;;;;;;5116317;28;20038;-72
2023/05/15 03:27:35;;;;;;;31.10;15.95;;;11.00;99.90;;;;;;5116329;28;20036;-71
2023/05/15 03:30:02;;;;;;;28.23;16.60;;;11.00;99.90;;;;;;5116093;28;20032;-72
2023/05/15 03:32:27;;;;;;;26.20;15.93;;;11.00;99.90;;;;;;5116228;28;20088;-71
2023/05/15 03:34:53;;;;;;;30.02;15.48;;;10.90;99.90;;;;;;5116082;28;20036;-72
2023/05/15 03:37:18;;;;;;;26.92;14.73;;;11.50;99.90;;;;;;5116156;28;20118;-71
2023/05/15 03:39:44;;;;;;;27.83;15.13;;;11.00;99.90;;;;;;5116022;28;20188;-71
2023/05/15 03:42:10;;;;;;;31.38;15.43;;;11.00;99.90;;;;;;5116069;28;20040;-71
2023/05/15 03:44:35;;;;;;;29.52;16.10;;;11.00;99.90;;;;;;5116334;28;20122;-71
2023/05/15 03:47:01;;;;;;;29.80;16.23;;;11.00;99.90;;;;;;5115979;28;20031;-71
2023/05/15 03:49:26;;;;;;;34.58;15.43;;;11.00;99.90;;;;;;5115544;28;20043;-71
2023/05/15 03:51:52;;;;;;;37.75;15.15;;;11.00;99.90;;;;;;5115616;28;20039;-71
2023/05/15 03:54:18;;;;;;;28.75;16.17;;;11.10;99.90;;;;;;5114461;28;20063;-71
2023/05/15 03:56:43;;;;;;;27.65;15.82;;;11.10;99.90;;;;;;5115752;28;20043;-72
2023/05/15 03:59:09;;;;;;;47.85;17.00;;;11.00;99.90;;;;;;5115666;28;20050;-71
2023/05/15 04:01:34;;;;;;;32.67;16.75;;;11.00;99.90;;;;;;5114851;28;20039;-71
2023/05/15 04:04:00;;;;;;;25.60;15.25;;;11.00;99.90;;;;;;5114181;28;20079;-71
2023/05/15 04:06:25;;;;;;;49.88;16.73;;;11.00;99.90;;;;;;5115549;28;20123;-71
2023/05/15 04:08:51;;;;;;;33.08;17.20;;;11.00;99.90;;;;;;5114293;28;20035;-71
2023/05/15 04:11:17;;;;;;;35.85;16.25;;;11.20;99.90;;;;;;5114277;28;20043;-72
2023/05/15 04:13:42;;;;;;;57.72;18.05;;;10.90;99.90;;;;;;5115390;27;20036;-72
2023/05/15 04:16:08;;;;;;;31.50;16.02;;;10.90;99.90;;;;;;5115074;28;20165;-71
2023/05/15 04:18:34;;;;;;;47.35;17.98;;;10.90;99.90;;;;;;5115009;28;20044;-71
2023/05/15 04:20:59;;;;;;;27.90;15.60;;;10.90;99.90;;;;;;5115513;28;20050;-71
2023/05/15 04:23:25;;;;;;;30.05;15.27;;;10.90;99.90;;;;;;5115329;28;20070;-72
2023/05/15 04:25:52;;;;;;;40.40;17.58;;;10.90;99.90;;;;;;5115395;28;20599;-71
2023/05/15 04:28:19;;;;;;;;;;;10.90;99.90;;;;;;5115639;28;20039;-71
2023/05/15 04:30:45;;;;;;;28.50;13.70;;;10.90;99.90;;;;;;5115132;27;19916;-71
2023/05/15 04:33:11;;;;;;;26.17;13.98;;;10.90;99.90;;;;;;5114820;28;20077;-71
2023/05/15 04:35:36;;;;;;;57.63;17.45;;;10.80;99.90;;;;;;5114774;28;20048;-71
2023/05/15 04:38:02;;;;;;;39.42;16.63;;;10.90;99.90;;;;;;5114979;28;20118;-71
2023/05/15 04:40:28;;;;;;;30.75;16.27;;;10.80;99.90;;;;;;5114926;28;20082;-71
2023/05/15 04:42:54;;;;;;;26.15;16.05;;;10.80;99.90;;;;;;5114918;28;20062;-71
2023/05/15 04:45:20;;;;;;;55.67;16.13;;;10.80;99.90;;;;;;5114803;28;20027;-71
2023/05/15 04:47:45;;;;;;;39.20;16.07;;;10.90;99.90;;;;;;5114845;28;20040;-72
2023/05/15 04:50:11;;;;;;;28.95;16.05;;;10.80;99.90;;;;;;5114764;28;20119;-71
2023/05/15 04:52:37;;;;;;;46.15;18.40;;;10.80;99.90;;;;;;5114754;28;20036;-72
2023/05/15 04:55:02;;;;;;;28.85;15.50;;;10.80;99.90;;;;;;5114557;28;20042;-71
2023/05/15 04:57:29;;;;;;;32.00;17.35;;;10.80;99.90;;;;;;5114680;28;20504;-71
2023/05/15 04:59:54;;;;;;;29.30;16.92;;;10.70;99.90;;;;;;5114612;28;20039;-72
2023/05/15 05:02:21;;;;;;;35.30;18.73;;;10.70;99.90;;;;;;5114518;28;20043;-71
2023/05/15 05:04:47;;;;;;;34.60;19.30;;;10.80;99.90;;;;;;5114443;28;20043;-71
2023/05/15 05:07:12;;;;;;;31.33;17.30;;;10.80;99.90;;;;;;5114506;28;20096;-72
2023/05/15 05:09:38;;;;;;;34.08;18.52;;;10.80;99.90;;;;;;5114348;28;20051;-71
2023/05/15 05:12:05;;;;;;;31.40;17.17;;;10.80;99.90;;;;;;5114475;27;20042;-71
2023/05/15 05:14:31;;;;;;;;;;;10.80;99.90;;;;;;5114740;28;20038;-71
2023/05/15 05:16:56;;;;;;;29.25;16.30;;;10.80;99.90;;;;;;5114292;28;19920;-71
2023/05/15 05:19:22;;;;;;;32.63;15.98;;;10.80;99.90;;;;;;5114387;28;20486;-71
2023/05/15 05:21:48;;;;;;;33.85;15.95;;;11.00;99.90;;;;;;5114327;28;20046;-71
2023/05/15 05:24:13;;;;;;;29.92;16.27;;;10.70;99.90;;;;;;5114196;28;20061;-71
2023/05/15 05:26:42;;;;;;;26.40;15.10;;;10.70;99.90;;;;;;5114011;28;20044;-72
2023/05/15 05:29:08;;;;;;;24.50;14.55;;;10.70;99.90;;;;;;5113630;28;20040;-71
2023/05/15 05:31:33;;;;;;;24.58;14.52;;;10.70;99.90;;;;;;5114477;28;20047;-71
2023/05/15 05:33:59;;;;;;;31.90;14.30;;;10.60;99.90;;;;;;5114250;28;20035;-72
2023/05/15 05:36:25;;;;;;;25.90;15.20;;;10.60;99.90;;;;;;5114217;28;20039;-72
2023/05/15 05:38:50;;;;;;;24.97;14.60;;;10.60;99.90;;;;;;5114099;28;20114;-72
2023/05/15 05:41:16;;;;;;;24.20;13.82;;;10.70;99.90;;;;;;5114375;28;20540;-71
2023/05/15 05:43:42;;;;;;;30.05;16.10;;;10.60;99.90;;;;;;5114155;28;20066;-72
2023/05/15 05:46:07;;;;;;;26.52;14.25;;;10.60;99.90;;;;;;5114082;28;20031;-72
2023/05/15 05:48:33;;;;;;;33.88;15.13;;;10.60;99.90;;;;;;5114019;28;20118;-71
2023/05/15 05:50:58;;;;;;;30.45;16.92;;;10.70;99.90;;;;;;5113978;28;20036;-71
2023/05/15 05:53:24;;;;;;;24.23;14.75;;;10.70;99.90;;;;;;5113628;28;20046;-71
2023/05/15 05:55:50;;;;;;;28.17;15.77;;;10.70;99.90;;;;;;5114005;28;20039;-71
2023/05/15 05:58:17;;;;;;;30.70;14.63;;;10.80;99.90;;;;;;5113757;28;20040;-70
2023/05/15 06:00:43;;;;;;;31.40;16.42;;;10.70;99.90;;;;;;5113912;28;20430;-71
2023/05/15 06:03:08;;;;;;;29.58;14.95;;;10.70;99.90;;;;;;5113907;28;20035;-71
2023/05/15 06:05:34;;;;;;;30.70;14.30;;;10.70;99.90;;;;;;5113912;28;20044;-72
2023/05/15 06:08:01;;;;;;;25.73;15.05;;;10.60;99.90;;;;;;5113847;28;20036;-70
2023/05/15 06:10:26;;;;;;;28.10;15.48;;;10.50;99.90;;;;;;5114219;28;20040;-71
2023/05/15 06:12:52;;;;;;;29.13;16.00;;;10.60;99.90;;;;;;5113786;28;20184;-71
2023/05/15 06:15:17;;;;;;;30.00;15.23;;;10.70;99.90;;;;;;5114031;28;20032;-71
2023/05/15 06:17:43;;;;;;;25.17;15.15;;;10.70;99.90;;;;;;5113789;28;20075;-71
2023/05/15 06:20:09;;;;;;;30.35;14.48;;;10.70;99.90;;;;;;5113729;28;20062;-71
2023/05/15 06:22:35;;;;;;;22.98;14.10;;;10.70;99.90;;;;;;5113679;28;20047;-71
2023/05/15 06:25:04;;;;;;;28.48;15.25;;;10.80;99.90;;;;;;5113624;28;20475;-70
2023/05/15 06:27:30;;;;;;;24.75;13.48;;;10.80;99.90;;;;;;5113625;28;20047;-70
2023/05/15 06:29:55;;;;;;;26.40;14.75;;;10.80;99.90;;;;;;5113700;28;20040;-71
2023/05/15 06:32:21;;;;;;;30.88;14.63;;;10.70;99.90;;;;;;5113686;28;20042;-70
2023/05/15 06:34:47;;;;;;;27.58;14.95;;;10.80;99.90;;;;;;5113782;28;20467;-71
2023/05/15 06:37:12;;;;;;;23.50;13.07;;;10.70;99.90;;;;;;5113605;28;20471;-70
2023/05/15 06:39:38;;;;;;;28.95;15.43;;;10.70;99.90;;;;;;5113631;28;20035;-70
2023/05/15 06:42:04;;;;;;;26.60;14.80;;;10.70;99.90;;;;;;5115018;28;20092;-70
2023/05/15 06:44:30;;;;;;;27.23;15.18;;;10.80;99.90;;;;;;5115969;28;20039;-70
2023/05/15 06:46:56;;;;;;;26.52;14.93;;;10.80;99.90;;;;;;5117208;28;20432;-70
2023/05/15 06:49:23;;;;;;;29.70;16.02;;;10.80;99.90;;;;;;5117088;28;20131;-71
2023/05/15 06:51:49;;;;;;;26.65;15.27;;;10.80;99.90;;;;;;5117077;28;20051;-71
2023/05/15 06:54:14;;;;;;;25.88;14.25;;;10.90;99.90;;;;;;5116889;28;20036;-72
2023/05/15 06:56:40;;;;;;;27.67;15.93;;;10.90;99.90;;;;;;5116911;28;20088;-71
2023/05/15 06:59:06;;;;;;;28.42;15.05;;;10.90;99.90;;;;;;5116885;28;20035;-71
2023/05/15 07:01:31;;;;;;;27.15;15.15;;;10.90;99.90;;;;;;5116847;28;20043;-70
2023/05/15 07:03:57;;;;;;;26.45;15.73;;;11.00;99.90;;;;;;5116616;28;20465;-71
2023/05/15 07:06:24;;;;;;;29.10;15.43;;;11.10;99.90;;;;;;5116774;28;20082;-70
2023/05/15 07:08:50;;;;;;;25.92;14.40;;;11.30;99.90;;;;;;5116635;28;20040;-71
2023/05/15 07:11:15;;;;;;;26.10;14.65;;;11.40;99.90;;;;;;5116684;28;20047;-71
2023/05/15 07:13:41;;;;;;;22.67;13.75;;;11.60;99.90;;;;;;5116567;28;20044;-72
2023/05/15 07:16:06;;;;;;;21.85;12.70;;;11.90;99.90;;;;;;5116615;28;20130;-71
2023/05/15 07:18:32;;;;;;;25.02;13.75;;;12.20;99.90;;;;;;5116718;28;20039;-72
2023/05/15 07:20:58;;;;;;;21.20;12.65;;;12.40;99.90;;;;;;5116490;28;20471;-71
2023/05/15 07:23:23;;;;;;;17.75;12.40;;;12.60;99.90;;;;;;5116138;28;20036;-71
2023/05/15 07:25:49;;;;;;;19.00;11.60;;;12.70;99.90;;;;;;5116361;28;20031;-71
2023/05/15 07:28:15;;;;;;;19.85;11.65;;;12.90;99.90;;;;;;5116382;27;20040;-70
2023/05/15 07:30:40;;;;;;;20.15;11.73;;;12.90;99.90;;;;;;5116640;28;20452;-71
2023/05/15 07:33:06;;;;;;;16.15;10.00;;;13.00;99.90;;;;;;5116319;28;20119;-70
2023/05/15 07:35:31;;;;;;;15.80;11.02;;;13.10;99.90;;;;;;5115873;28;20032;-71
2023/05/15 07:37:57;;;;;;;15.98;11.00;;;13.30;99.90;;;;;;5116158;28;20035;-72
2023/05/15 07:40:23;;;;;;;15.45;9.77;;;13.50;99.90;;;;;;5116160;28;20039;-70
2023/05/15 07:42:48;;;;;;;16.90;10.23;;;13.60;99.90;;;;;;5116131;28;20044;-72
2023/05/15 07:45:14;;;;;;;15.00;9.10;;;13.70;99.90;;;;;;5115852;28;20032;-71
2023/05/15 07:47:47;;;;;;;15.25;9.18;;;13.80;99.90;;;;;;5115913;28;20486;-71
2023/05/15 07:50:13;;;;;;;16.05;10.57;;;14.00;99.90;;;;;;5115885;28;20032;-71
2023/05/15 07:52:39;;;;;;;14.00;9.37;;;14.10;99.90;;;;;;5115349;28;20075;-71
2023/05/15 07:55:05;;;;;;;13.97;8.77;;;14.30;99.90;;;;;;5115771;28;20120;-72
2023/05/15 07:57:30;;;;;;;13.10;9.45;;;14.20;99.90;;;;;;5115763;28;20039;-71
2023/05/15 07:59:56;;;;;;;13.45;9.32;;;14.40;99.90;;;;;;5115803;28;20074;-72
2023/05/15 08:02:22;;;;;;;12.32;8.75;;;14.50;99.90;;;;;;5115740;28;20130;-71
2023/05/15 08:04:48;;;;;;;12.13;9.18;;;14.70;99.90;;;;;;5115653;28;20065;-72
2023/05/15 08:07:13;;;;;;;11.43;8.37;;;14.80;99.90;;;;;;5115476;28;20047;-71
2023/05/15 08:09:39;;;;;;;14.25;9.15;;;14.90;99.90;;;;;;5115530;28;20504;-71
2023/05/15 08:12:16;;;;;;;16.37;9.70;;;15.10;99.90;;;;;;5115512;28;20600;-70
2023/05/15 08:14:42;;;;;;;13.35;8.45;;;15.20;99.90;;;;;;5115371;28;20038;-71
2023/05/15 08:17:07;;;;;;;12.38;8.80;;;15.40;99.90;;;;;;5115357;28;20114;-71
2023/05/15 08:19:33;;;;;;;14.70;8.88;;;15.60;99.90;;;;;;5115346;28;20048;-71
2023/05/15 08:21:58;;;;;;;10.07;7.47;;;15.80;99.90;;;;;;5113960;28;20039;-72
2023/05/15 08:24:24;;;;;;;13.13;7.80;;;15.90;99.90;;;;;;5115485;28;20078;-71
2023/05/15 08:26:50;;;;;;;9.90;6.90;;;16.00;99.90;;;;;;5115209;28;20130;-71
2023/05/15 08:29:16;;;;;;;10.30;7.80;;;16.10;99.90;;;;;;5115085;28;20349;-71
2023/05/15 08:31:42;;;;;;;9.57;6.80;;;16.10;99.90;;;;;;5115352;28;20032;-71
2023/05/15 08:34:07;;;;;;;13.23;7.53;;;16.20;99.90;;;;;;5114914;28;20031;-71
2023/05/15 08:36:33;;;;;;;9.57;7.03;;;16.00;99.90;;;;;;5114931;28;20045;-71
2023/05/15 08:38:58;;;;;;;9.17;6.53;;;16.00;99.90;;;;;;5115015;28;20043;-72
2023/05/15 08:41:32;;;;;;;11.53;6.97;;;16.20;99.90;;;;;;5114916;28;20460;-71
2023/05/15 08:44:00;;;;;;;9.38;6.93;;;16.30;99.90;;;;;;5114790;28;20075;-71
2023/05/15 08:46:27;;;;;;;13.25;7.75;;;16.40;99.90;;;;;;5114810;28;20156;-71
2023/05/15 08:48:55;;;;;;;9.40;6.88;;;16.30;99.90;;;;;;5114790;28;20036;-71
2023/05/15 08:51:22;;;;;;;10.90;7.05;;;16.40;99.90;;;;;;5114647;28;20040;-72
2023/05/15 08:53:49;;;;;;;10.60;6.60;;;16.60;99.90;;;;;;5115043;28;20054;-71
2023/05/15 08:56:15;;;;;;;11.43;6.95;;;16.60;99.90;;;;;;5114981;28;20044;-71
2023/05/15 08:58:42;;;;;;;9.65;6.93;;;16.90;99.90;;;;;;5113717;28;20043;-72
2023/05/15 09:01:08;;;;;;;11.07;6.68;;;17.00;99.90;;;;;;5114522;28;20096;-71
2023/05/15 09:03:33;;;;;;;12.37;7.47;;;17.10;99.90;;;;;;5114353;28;20379;-72
2023/05/15 09:06:00;;;;;;;10.90;7.20;;;17.00;99.90;;;;;;5114246;28;20292;-73
2023/05/15 09:08:29;;;;;;;7.43;5.82;;;17.00;99.90;;;;;;5114503;28;20043;-71
2023/05/15 09:10:56;;;;;;;9.20;7.15;;;17.20;99.90;;;;;;5114419;28;20455;-71
2023/05/15 09:13:22;;;;;;;8.38;6.55;;;17.30;99.90;;;;;;5114511;28;20506;-71
2023/05/15 09:15:48;;;;;;;8.33;6.07;;;17.30;99.90;;;;;;5114559;28;20039;-71
2023/05/15 09:18:15;;;;;;;9.50;6.93;;;17.50;99.90;;;;;;5114425;28;20518;-72
2023/05/15 09:20:41;;;;;;;9.57;6.07;;;17.50;99.90;;;;;;5114414;28;20050;-71
2023/05/15 09:23:23;;;;;;;8.67;5.23;;;17.60;99.90;;;;;;5114288;28;20039;-72
2023/05/15 09:25:56;;;;;;;9.77;5.40;;;17.70;99.90;;;;;;5114286;28;20039;-72
2023/05/15 09:28:28;;;;;;;8.02;5.90;;;17.80;99.90;;;;;;5113885;28;20480;-72
2023/05/15 09:30:58;;;;;;;9.23;5.82;;;17.80;99.90;;;;;;5114145;28;20390;-70
2023/05/15 09:33:32;;;;;;;5.57;4.50;;;17.90;99.90;;;;;;5114576;28;20036;-72
2023/05/15 09:35:57;;;;;;;10.50;5.40;;;18.00;99.90;;;;;;5114535;28;20044;-70
2023/05/15 09:38:23;;;;;;;7.47;5.10;;;17.90;99.90;;;;;;5114139;28;20051;-72
2023/05/15 09:40:49;;;;;;;8.87;5.50;;;17.80;99.90;;;;;;5114117;28;20032;-71
2023/05/15 09:43:15;;;;;;;10.03;5.43;;;18.00;99.90;;;;;;5114227;28;20076;-71
2023/05/15 09:45:41;;;;;;;8.67;5.23;;;18.20;99.90;;;;;;5114042;28;20032;-71
2023/05/15 09:48:07;;;;;;;9.65;6.30;;;18.40;99.90;;;;;;5114377;28;20050;-71
2023/05/15 09:50:37;;;;;;;9.43;5.47;;;18.50;99.90;;;;;;5113979;28;20035;-72
2023/05/15 09:53:04;;;;;;;7.63;4.80;;;18.50;99.90;;;;;;5096767;28;20044;-71
2023/05/15 09:55:33;;;;;;;9.63;5.68;;;18.70;99.90;;;;;;5114062;28;20036;-72
2023/05/15 09:58:11;;;;;;;7.97;6.28;;;18.80;99.90;;;;;;5113934;28;20079;-71
2023/05/15 10:00:38;;;;;;;7.50;4.78;;;18.60;99.90;;;;;;5113723;28;20031;-71
2023/05/15 10:03:05;;;;;;;11.82;5.22;;;18.70;99.90;;;;;;5112657;28;20420;-71
2023/05/15 10:05:31;;;;;;;11.15;6.38;;;18.80;99.90;;;;;;5114358;28;20044;-71
2023/05/15 10:07:58;;;;;;;6.83;5.30;;;18.90;99.90;;;;;;5113922;28;20471;-71
2023/05/15 10:10:25;;;;;;;5.80;4.88;;;19.20;99.90;;;;;;5113943;28;20375;-71
2023/05/15 10:12:52;;;;;;;5.82;4.18;;;19.20;99.90;;;;;;5113528;28;20130;-73
2023/05/15 10:15:19;;;;;;;9.10;6.15;;;19.40;99.90;;;;;;5114031;28;20039;-72
2023/05/15 10:17:50;;;;;;;9.80;6.30;;;19.40;99.90;;;;;;5117788;28;20027;-72
2023/05/15 10:20:20;;;;;;;8.70;5.68;;;19.30;99.90;;;;;;5117564;28;20088;-71
2023/05/15 10:22:49;;;;;;;11.55;5.82;;;19.50;99.90;;;;;;5116404;28;20420;-72
2023/05/15 10:25:26;;;;;;;7.97;5.28;;;19.60;99.90;;;;;;5099451;28;20035;-72
2023/05/15 10:27:53;;;;;;;6.57;5.40;;;19.80;99.90;;;;;;5117610;28;20079;-71
2023/05/15 10:30:20;;;;;;;8.48;5.93;;;19.90;99.90;;;;;;5116701;28;20483;-72
2023/05/15 10:32:47;;;;;;;;;;;19.90;99.90;;;;;;5118102;28;20039;-72
2023/05/15 10:35:14;;;;;;;9.70;6.10;;;19.90;99.90;;;;;;5117402;28;20351;-72
2023/05/15 10:37:39;;;;;;;6.43;5.20;;;20.00;99.90;;;;;;5116382;28;20049;-73
2023/05/15 10:40:09;;;;;;;7.53;5.03;;;20.10;99.90;;;;;;5117588;28;20126;-72
2023/05/15 10:42:36;;;;;;;8.00;5.40;;;20.20;99.90;;;;;;5117250;28;20031;-72
2023/05/15 10:45:02;;;;;;;7.15;4.85;;;20.20;99.90;;;;;;5116119;28;20043;-71
2023/05/15 10:47:31;;;;;;;6.72;5.15;;;20.30;99.90;;;;;;5117195;28;20383;-71
2023/05/15 10:49:57;;;;;;;6.65;4.63;;;20.50;99.90;;;;;;5115928;28;20065;-72
2023/05/15 10:52:23;;;;;;;4.32;3.53;;;20.50;99.90;;;;;;5117067;28;20058;-72
2023/05/15 10:54:49;;;;;;;7.97;4.30;;;20.60;99.90;;;;;;5117490;28;20053;-72
2023/05/15 10:57:15;;;;;;;4.30;3.30;;;20.70;99.90;;;;;;5117014;28;20122;-72
2023/05/15 10:59:40;;;;;;;7.87;4.10;;;20.70;99.90;;;;;;5116952;28;20046;-71
2023/05/15 11:02:19;;;;;;;6.13;3.63;;;20.80;99.90;;;;;;5116898;28;20047;-72
2023/05/15 11:04:45;;;;;;;3.33;2.70;;;20.90;99.90;;;;;;5116753;28;20047;-71
2023/05/15 11:07:13;;;;;;;4.67;3.30;;;20.90;99.90;;;;;;5116826;28;20044;-72
2023/05/15 11:09:39;;;;;;;5.47;4.55;;;20.90;99.90;;;;;;5116718;28;20350;-71
2023/05/15 11:12:06;;;;;;;6.25;3.70;;;20.90;99.90;;;;;;5116751;28;20039;-71
2023/05/15 11:14:39;;;;;;;6.75;4.10;;;20.80;99.90;;;;;;5116602;28;20157;-71
2023/05/15 11:17:09;;;;;;;5.75;3.95;;;20.90;99.90;;;;;;5116785;28;20040;-72
2023/05/15 11:19:53;;;;;;;6.53;3.13;;;21.00;99.90;;;;;;5116491;28;20463;-71
2023/05/15 11:22:27;;;;;;;3.75;2.50;;;20.90;99.90;;;;;;5116538;27;20036;-72
2023/05/15 11:25:08;;;;;;;7.00;4.60;;;20.90;99.90;;;;;;5116781;28;20054;-72
2023/05/15 11:27:40;;;;;;;6.38;4.60;;;21.00;99.90;;;;;;5115530;28;20118;-72
2023/05/15 11:30:10;;;;;;;6.63;4.80;;;21.10;99.90;;;;;;5116276;28;20036;-71
2023/05/15 11:32:54;;;;;;;5.95;3.83;;;21.20;99.90;;;;;;5115936;28;20490;-72
2023/05/15 11:35:20;;;;;;;6.65;4.22;;;21.20;99.90;;;;;;5116655;28;20042;-71
2023/05/15 11:37:52;;;;;;;6.75;4.32;;;21.20;99.90;;;;;;5116176;28;20044;-72
2023/05/15 11:40:29;;;;;;;6.28;4.50;;;21.20;99.00;;;;;;5116197;28;20039;-71
2023/05/15 11:43:19;;;;;;;6.95;3.88;;;21.20;99.90;;;;;;5116526;28;20046;-72
2023/05/15 11:45:51;;;;;;;6.90;4.22;;;21.30;99.90;;;;;;5116074;28;20078;-72
2023/05/15 11:48:18;;;;;;;4.50;3.90;;;21.40;99.90;;;;;;5116162;28;20118;-71
2023/05/15 11:50:44;;;;;;;5.72;4.30;;;21.70;99.90;;;;;;5116055;28;20048;-72
2023/05/15 11:53:10;;;;;;;8.30;5.40;;;21.80;99.90;;;;;;5115830;28;20031;-72
2023/05/15 11:55:39;;;;;;;6.28;4.47;;;21.90;99.90;;;;;;5115665;28;20035;-72
2023/05/15 11:58:09;;;;;;;6.10;4.57;;;22.00;99.90;;;;;;5115776;28;20040;-72
2023/05/15 12:00:35;;;;;;;6.30;4.90;;;22.20;99.90;;;;;;5116353;28;20112;-72
2023/05/15 12:03:02;;;;;;;7.93;4.77;;;22.30;99.90;;;;;;5115508;28;20036;-73
2023/05/15 12:05:29;;;;;;;7.40;4.40;;;22.20;99.90;;;;;;5115590;28;20385;-71
2023/05/15 12:07:54;;;;;;;6.07;4.10;;;22.30;99.90;;;;;;5115576;28;20390;-73
2023/05/15 12:10:20;;;;;;;6.77;5.20;;;22.30;99.90;;;;;;5115573;28;20079;-71
2023/05/15 12:12:45;;;;;;;6.17;4.63;;;22.00;99.90;;;;;;5115682;28;20046;-71
2023/05/15 12:15:13;;;;;;;4.97;4.40;;;21.90;99.90;;;;;;5115161;28;20077;-73
2023/05/15 12:17:40;;;;;;;7.45;6.00;;;22.00;99.90;;;;;;5115380;28;20045;-73
2023/05/15 12:20:11;;;;;;;5.75;4.90;;;21.80;99.90;;;;;;5115330;28;20036;-71
2023/05/15 12:22:41;;;;;;;7.20;4.70;;;21.90;99.90;;;;;;5115350;28;20100;-72
2023/05/15 12:25:08;;;;;;;9.98;5.13;;;22.00;99.90;;;;;;5115262;28;20046;-73
2023/05/15 12:27:35;;;;;;;7.63;5.32;;;22.00;99.90;;;;;;5115199;28;20085;-72
2023/05/15 12:30:02;;;;;;;7.30;5.07;;;22.00;99.90;;;;;;5115395;28;20043;-71
2023/05/15 12:32:35;;;;;;;7.20;5.63;;;21.90;99.90;;;;;;5115104;28;20086;-72
2023/05/15 12:35:02;;;;;;;9.80;5.50;;;21.80;99.90;;;;;;5114694;28;20118;-72
2023/05/15 12:37:30;;;;;;;;;;;21.90;99.90;;;;;;5115450;27;20046;-72